Time;durP1;ratioP1;P1;durP2;ratioP2;P2;SDS_P1;SDS_P2;PMS_P1;PMS_P2;Temp;Humidity;BMP_temperature;BMP_pressure;BME280_temperature;BME280_humidity;BME280_pressure;Samples;Min_cycle;Max_cycle;Signal;HPM_P1;HPM_P2
2023/12/24 00:01:16;;;;;;;3.60;1.70;;;;;;;-0.43;73.07;96679.23;105137;1267;61028;-28
2023/12/24 00:03:43;;;;;;;5.80;2.40;;;;;;;-0.52;73.79;96673.55;104876;1270;71051;-28
2023/12/24 00:06:11;;;;;;;6.60;2.40;;;;;;;-0.75;74.79;96680.34;104892;1270;73181;-27
2023/12/24 00:08:39;;;;;;;3.40;2.10;;;;;;;-0.50;74.93;96678.58;104779;1270;72700;-28
2023/12/24 00:11:07;;;;;;;3.30;1.80;;;;;;;-0.10;73.18;96685.66;104854;1263;158487;-28
2023/12/24 00:13:35;;;;;;;4.60;2.10;;;;;;;-0.12;72.96;96690.21;104919;1269;61168;-28
2023/12/24 00:16:03;;;;;;;3.50;2.00;;;;;;;-0.18;73.16;96699.56;105099;1263;72175;-27
2023/12/24 00:18:30;;;;;;;4.90;2.10;;;;;;;-0.53;74.23;96681.14;104957;1270;73192;-28
2023/12/24 00:20:58;;;;;;;2.30;1.60;;;;;;;-0.60;74.99;96693.25;105152;1268;72694;-28
2023/12/24 00:23:26;;;;;;;10.00;1.90;;;;;;;-0.71;75.66;96695.08;104924;1266;61040;-28
2023/12/24 00:25:54;;;;;;;6.30;2.20;;;;;;;-0.31;74.86;96702.90;105142;1268;61111;-28
2023/12/24 00:28:22;;;;;;;4.80;1.80;;;;;;;0.03;73.56;96709.62;105135;1263;71016;-28
2023/12/24 00:37:31;;;;;;;4.80;2.50;;;;;;;-0.50;75.37;96713.64;103040;1292;600132;-27
2023/12/24 00:39:58;;;;;;;4.90;2.20;;;;;;;-0.60;75.96;96716.10;104812;1270;61173;-28
2023/12/24 00:42:26;;;;;;;3.50;1.90;;;;;;;-0.19;74.74;96719.04;104810;1270;61218;-28
2023/12/24 00:44:54;;;;;;;6.50;3.10;;;;;;;0.18;73.00;96722.96;104849;1267;72131;-28
2023/12/24 00:47:21;;;;;;;6.20;2.40;;;;;;;0.00;73.14;96722.89;104884;1270;73152;-28
2023/12/24 01:05:15;;;;;;;5.30;2.40;;;;;;;-0.05;73.23;96737.67;102913;1291;599968;-25
2023/12/24 01:15:18;;;;;;;4.20;2.20;;;;;;;-0.33;74.88;96736.78;103096;1286;599973;-31
2023/12/24 01:17:46;;;;;;;7.00;2.80;;;;;;;-0.01;73.62;96742.13;104974;1264;61189;-28
2023/12/24 01:27:52;;;;;;;5.40;2.30;;;;;;;-0.30;74.77;96757.38;102746;1295;600587;-26
2023/12/24 01:30:20;;;;;;;5.80;2.60;;;;;;;-0.44;75.13;96755.14;104937;1269;61151;-27
2023/12/24 01:32:48;;;;;;;4.50;2.20;;;;;;;-0.32;75.13;96755.77;105261;1260;61069;-28
2023/12/24 01:35:17;;;;;;;5.00;2.80;;;;;;;0.14;73.02;96751.91;105283;1267;71045;-28
2023/12/24 01:45:28;;;;;;;9.30;2.90;;;;;;;-0.23;73.88;96780.93;103034;1292;600764;-27
2023/12/24 01:47:55;;;;;;;3.70;2.70;;;;;;;-0.47;74.83;96788.11;104864;1271;61184;-27
2023/12/24 01:50:23;;;;;;;6.00;1.80;;;;;;;-0.36;74.93;96784.75;104911;1270;61059;-27
2023/12/24 01:52:51;;;;;;;5.00;2.40;;;;;;;0.05;73.18;96784.29;104867;1268;70935;-27
2023/12/24 01:55:21;;;;;;;3.10;2.20;;;;;;;0.08;72.80;96780.71;104792;1273;73234;-27
2023/12/24 01:57:48;;;;;;;7.30;2.60;;;;;;;-0.02;73.14;96797.27;104814;1271;72671;-27
2023/12/24 02:00:19;;;;;;;7.00;3.20;;;;;;;-0.16;73.27;96785.02;105020;1265;171294;-26
2023/12/24 02:02:47;;;;;;;5.50;2.20;;;;;;;-0.39;74.27;96793.84;104831;1269;61139;-26
2023/12/24 02:05:14;;;;;;;4.60;2.40;;;;;;;-0.55;74.88;96798.73;104807;1265;70974;-27
2023/12/24 02:07:42;;;;;;;4.60;2.50;;;;;;;-0.25;74.77;96805.26;104793;1269;74290;-27
2023/12/24 02:10:10;;;;;;;5.80;2.80;;;;;;;-0.14;73.11;96800.04;104822;1270;72649;-27
2023/12/24 02:12:37;;;;;;;4.70;2.80;;;;;;;-0.02;72.70;96809.20;105105;1270;61126;-27
2023/12/24 02:15:05;;;;;;;3.70;2.70;;;;;;;-0.20;73.22;96804.73;104707;1264;61005;-27
2023/12/24 02:17:33;;;;;;;4.70;3.00;;;;;;;-0.35;74.01;96803.94;104886;1272;71837;-27
2023/12/24 02:20:01;;;;;;;5.10;2.40;;;;;;;-0.56;74.65;96815.15;104907;1268;74765;-27
2023/12/24 02:22:29;;;;;;;5.10;2.40;;;;;;;-0.67;75.39;96820.73;105104;1269;71480;-27
2023/12/24 02:24:56;;;;;;;4.60;2.70;;;;;;;-0.18;73.53;96823.69;105112;1269;61221;-27
2023/12/24 02:27:31;;;;;;;5.70;2.70;;;;;;;-0.02;72.40;96832.41;105084;1269;61141;-27
2023/12/24 02:30:02;;;;;;;4.40;2.00;;;;;;;-0.16;72.58;96823.08;104875;1271;73023;-27
2023/12/24 02:40:12;;;;;;;3.40;1.90;;;;;;;-0.52;74.00;96844.55;102624;1291;599584;-25
2023/12/24 02:42:39;;;;;;;5.80;2.50;;;;;;;-0.17;72.16;96827.77;104573;1272;61221;-27
2023/12/24 02:52:48;;;;;;;7.40;2.00;;;;;;;-0.62;73.65;96841.52;102622;1298;599717;-27
2023/12/24 02:55:16;;;;;;;4.10;2.20;;;;;;;-0.63;73.78;96859.11;104826;1270;61180;-27
2023/12/24 03:05:23;;;;;;;4.10;1.90;;;;;;;-0.29;71.75;96868.34;103067;1289;601277;-27
2023/12/24 03:07:52;;;;;;;4.30;1.60;;;;;;;-0.48;71.83;96873.10;104806;1266;61090;-28
2023/12/24 03:10:19;;;;;;;5.50;2.20;;;;;;;-0.51;71.95;96876.35;104813;1266;61072;-28
2023/12/24 03:12:47;;;;;;;4.40;1.60;;;;;;;-0.66;71.98;96870.05;104818;1267;71028;-28
2023/12/24 03:15:15;;;;;;;3.50;1.80;;;;;;;-0.52;71.79;96884.22;104733;1267;74333;-28
2023/12/24 03:17:42;;;;;;;3.80;1.70;;;;;;;-0.03;70.14;96893.89;104835;1267;72698;-28
2023/12/24 03:27:32;;;;;;;3.20;1.80;;;;;;;-0.56;71.07;96898.89;102693;1291;602043;-27
2023/12/24 03:30:00;;;;;;;3.90;1.50;;;;;;;-0.63;71.25;96905.97;104828;1269;61155;-28
2023/12/24 03:32:27;;;;;;;4.40;2.00;;;;;;;-0.74;71.63;96908.30;104851;1266;61078;-28
2023/12/24 03:34:55;;;;;;;2.20;1.40;;;;;;;-0.59;71.23;96910.30;104840;1271;70752;-28
2023/12/24 03:37:23;;;;;;;4.00;1.60;;;;;;;-0.59;71.37;96909.43;104848;1270;73030;-28
2023/12/24 03:47:28;;;;;;;8.20;1.90;;;;;;;-0.76;71.40;96909.08;102681;1295;600176;-28
2023/12/24 03:49:56;;;;;;;3.00;1.70;;;;;;;-0.69;70.98;96910.14;104844;1264;61177;-28
2023/12/24 03:52:24;;;;;;;2.50;1.70;;;;;;;-0.80;70.98;96908.36;104874;1264;61175;-28
2023/12/24 03:54:51;;;;;;;2.90;1.50;;;;;;;-0.41;70.48;96922.55;104833;1264;71305;-28
2023/12/24 04:05:00;;;;;;;2.00;1.30;;;;;;;-0.49;69.23;96929.75;102923;1291;601452;-27
2023/12/24 04:07:28;;;;;;;3.90;1.80;;;;;;;-0.60;69.37;96928.15;104733;1272;61180;-28
2023/12/24 04:17:34;;;;;;;2.20;1.30;;;;;;;-0.46;68.87;96935.32;103035;1290;600556;-28
2023/12/24 04:20:06;;;;;;;3.30;1.20;;;;;;;-0.36;67.55;96937.20;104895;1266;61177;-28
2023/12/24 04:22:34;;;;;;;2.30;1.40;;;;;;;-0.40;67.12;96932.67;104667;1266;61110;-28
2023/12/24 04:32:42;;;;;;;2.10;1.60;;;;;;;-0.89;67.91;96956.33;102613;1297;600234;-27
2023/12/24 04:35:11;;;;;;;3.10;1.50;;;;;;;-0.89;67.63;96958.52;104826;1273;61194;-28
2023/12/24 04:37:39;;;;;;;1.80;1.50;;;;;;;-1.17;66.96;96933.71;104870;1267;61069;-28
2023/12/24 04:40:08;;;;;;;3.60;1.10;;;;;;;-1.23;67.06;96951.30;104762;1272;70985;-28
2023/12/24 04:42:35;;;;;;;1.30;0.90;;;;;;;-1.31;67.46;96961.35;104678;1272;74335;-27
2023/12/24 04:45:04;;;;;;;2.50;1.30;;;;;;;-0.85;65.81;96960.70;104800;1272;72639;-28
2023/12/24 04:55:08;;;;;;;3.80;1.70;;;;;;;-1.01;64.43;96972.48;102700;1292;600796;-27
2023/12/24 04:57:36;;;;;;;6.20;1.70;;;;;;;-1.28;65.02;96966.29;104898;1270;61235;-27
2023/12/24 05:00:05;;;;;;;1.50;1.00;;;;;;;-1.37;64.87;96970.62;104815;1272;61803;-27
2023/12/24 05:02:33;;;;;;;2.40;1.30;;;;;;;-1.49;65.27;96975.09;104802;1273;72195;-28
2023/12/24 05:05:03;;;;;;;2.80;1.20;;;;;;;-1.53;65.34;96968.42;104788;1271;74247;-27
2023/12/24 05:07:31;;;;;;;1.70;1.10;;;;;;;-1.61;65.51;96968.89;109138;1255;71542;-26
2023/12/24 05:09:58;;;;;;;2.80;1.40;;;;;;;-1.68;65.73;96966.96;109459;1253;207128;-26
2023/12/24 05:12:26;;;;;;;2.00;1.30;;;;;;;-1.80;66.11;96976.77;109609;1253;58778;-26
2023/12/24 05:14:54;;;;;;;2.00;1.20;;;;;;;-1.51;65.03;96984.27;109580;1253;72214;-27
2023/12/24 05:17:21;;;;;;;2.80;0.80;;;;;;;-1.03;63.45;96984.00;109569;1252;73193;-27
2023/12/24 05:19:49;;;;;;;1.60;0.80;;;;;;;-0.96;63.17;96981.85;109579;1253;71367;-26
2023/12/24 05:22:16;;;;;;;1.30;1.00;;;;;;;-0.99;63.44;96988.38;109325;1253;58842;-27
2023/12/24 05:24:44;;;;;;;1.50;1.10;;;;;;;-1.15;64.16;96980.41;109465;1253;58888;-26
2023/12/24 05:27:11;;;;;;;3.70;1.20;;;;;;;-1.29;64.81;96996.95;109604;1253;72074;-26
2023/12/24 05:29:40;;;;;;;1.60;1.10;;;;;;;-1.42;65.49;96998.35;109363;1252;74323;-27
2023/12/24 05:32:07;;;;;;;3.10;1.10;;;;;;;-1.59;66.37;96996.89;109406;1252;72675;-26
2023/12/24 05:34:35;;;;;;;2.30;1.30;;;;;;;-1.69;67.11;97008.77;109320;1253;58868;-26
2023/12/24 05:37:03;;;;;;;3.10;1.10;;;;;;;-1.84;67.64;97007.30;109582;1252;59636;-26
2023/12/24 05:39:31;;;;;;;2.20;1.00;;;;;;;-1.91;68.45;97014.69;109596;1253;73293;-26
2023/12/24 05:41:58;;;;;;;3.00;1.40;;;;;;;-2.02;69.33;97014.19;109433;1253;72213;-26
2023/12/24 05:44:26;;;;;;;1.60;1.00;;;;;;;-1.66;68.96;97016.33;109427;1253;71422;-26
2023/12/24 05:46:53;;;;;;;2.00;1.20;;;;;;;-1.16;67.23;97018.91;109359;1254;59376;-26
2023/12/24 05:49:21;;;;;;;4.80;1.30;;;;;;;-1.01;66.45;97021.86;109462;1253;58706;-26
2023/12/24 05:51:48;;;;;;;3.00;1.70;;;;;;;-1.11;66.68;97028.80;109433;1253;73051;-26
2023/12/24 05:54:16;;;;;;;2.10;1.20;;;;;;;-1.19;66.84;97032.40;109460;1253;74344;-26
2023/12/24 05:56:43;;;;;;;1.90;1.30;;;;;;;-1.34;68.00;97031.52;109530;1253;72688;-27
2023/12/24 05:59:11;;;;;;;2.10;1.10;;;;;;;-1.47;68.50;97035.56;109422;1252;59344;-26
2023/12/24 06:01:38;;;;;;;2.80;1.30;;;;;;;-1.56;69.78;97033.41;109441;1253;60091;-26
2023/12/24 06:04:06;;;;;;;3.10;1.00;;;;;;;-1.54;69.97;97030.75;109603;1253;73133;-26
2023/12/24 06:06:33;;;;;;;1.10;0.90;;;;;;;-1.61;70.43;97028.27;109299;1259;73367;-26
2023/12/24 06:09:01;;;;;;;2.30;1.30;;;;;;;-1.17;69.65;97037.04;109114;1253;72430;-26
2023/12/24 06:11:29;;;;;;;4.70;1.50;;;;;;;-0.56;67.88;97036.06;109391;1254;58899;-27
2023/12/24 06:13:56;;;;;;;3.10;1.70;;;;;;;-0.44;66.82;97040.73;109451;1253;58753;-26
2023/12/24 06:16:24;;;;;;;2.10;1.20;;;;;;;-0.56;67.31;97041.05;109361;1253;70964;-26
2023/12/24 06:18:51;;;;;;;1.40;1.20;;;;;;;-0.73;67.73;97046.23;109492;1253;74316;-26
2023/12/24 06:21:19;;;;;;;2.50;1.60;;;;;;;-0.75;68.34;97053.71;109501;1257;71383;-26
2023/12/24 06:23:47;;;;;;;2.50;1.40;;;;;;;-0.85;68.80;97059.31;109547;1254;59290;-27
2023/12/24 06:26:14;;;;;;;2.90;1.30;;;;;;;-0.96;69.57;97070.58;109322;1253;58855;-27
2023/12/24 06:28:42;;;;;;;1.60;1.10;;;;;;;-1.01;69.67;97071.63;109296;1253;73592;-26
2023/12/24 06:31:09;;;;;;;4.50;1.70;;;;;;;-1.11;70.04;97067.64;109341;1259;73072;-26
2023/12/24 06:33:37;;;;;;;1.80;1.10;;;;;;;-0.78;69.82;97081.02;109403;1253;72692;-26
2023/12/24 06:36:05;;;;;;;2.80;1.60;;;;;;;-0.27;68.18;97086.64;109395;1254;58847;-26
2023/12/24 06:38:32;;;;;;;2.90;1.40;;;;;;;-0.08;67.02;97074.80;109431;1254;59075;-27
2023/12/24 06:41:01;;;;;;;2.80;1.50;;;;;;;-0.22;67.23;97076.20;109429;1253;72750;-26
2023/12/24 06:43:28;;;;;;;3.90;1.80;;;;;;;-0.26;67.69;97080.09;109329;1253;74429;-26
2023/12/24 06:45:56;;;;;;;2.60;1.60;;;;;;;-0.38;67.96;97082.11;109298;1253;72651;-26
2023/12/24 06:48:23;;;;;;;1.50;1.20;;;;;;;-0.48;68.76;97085.66;109413;1254;59322;-26
2023/12/24 06:50:51;;;;;;;7.80;1.90;;;;;;;-0.58;69.08;97090.90;109351;1253;58697;-27
2023/12/24 06:53:19;;;;;;;5.80;1.80;;;;;;;-0.68;69.33;97088.55;109201;1254;73107;-27
2023/12/24 06:55:46;;;;;;;3.80;1.80;;;;;;;-0.77;69.21;97097.61;109416;1258;74283;-26
2023/12/24 06:58:14;;;;;;;4.20;1.80;;;;;;;-0.70;69.85;97103.46;109381;1253;72726;-26
2023/12/24 07:00:41;;;;;;;1.80;1.30;;;;;;;-0.31;68.64;97093.52;109314;1256;59295;-26
2023/12/24 07:03:09;;;;;;;2.70;1.20;;;;;;;0.13;66.11;97089.31;109451;1253;60039;-26
2023/12/24 07:05:38;;;;;;;4.50;1.40;;;;;;;0.25;66.05;97102.16;109429;1253;73034;-26
2023/12/24 07:08:07;;;;;;;1.30;1.00;;;;;;;0.06;65.69;97094.45;109310;1253;73365;-26
2023/12/24 07:10:35;;;;;;;1.60;1.20;;;;;;;-0.03;66.20;97106.27;109440;1253;72669;-26
2023/12/24 07:13:03;;;;;;;2.70;1.50;;;;;;;-0.03;66.51;97111.77;109282;1254;59383;-26
2023/12/24 07:15:38;;;;;;;2.10;1.40;;;;;;;-0.23;67.14;97105.09;109320;1253;58836;-26
2023/12/24 07:18:05;;;;;;;3.20;1.50;;;;;;;-0.27;66.98;97107.58;109302;1254;73145;-26
2023/12/24 07:20:33;;;;;;;2.60;1.60;;;;;;;-0.30;67.26;97106.45;109396;1254;74312;-26
2023/12/24 07:23:01;;;;;;;6.80;2.70;;;;;;;-0.40;68.15;97100.98;109348;1254;72736;-26
2023/12/24 07:25:29;;;;;;;4.40;1.70;;;;;;;-0.45;67.85;97104.02;109343;1256;58762;-26
2023/12/24 07:27:57;;;;;;;3.00;1.60;;;;;;;-0.46;68.29;97123.38;109368;1254;60051;-26
2023/12/24 07:30:24;;;;;;;2.60;1.10;;;;;;;0.08;66.35;97124.67;109357;1254;73052;-27
2023/12/24 07:32:52;;;;;;;4.00;1.90;;;;;;;0.42;65.37;97132.36;109367;1253;74485;-27
2023/12/24 07:35:22;;;;;;;5.70;2.10;;;;;;;0.50;65.51;97139.88;109330;1254;73850;-26
2023/12/24 07:37:50;;;;;;;5.00;1.70;;;;;;;0.38;65.78;97140.73;109331;1258;59288;-26
2023/12/24 07:40:18;;;;;;;2.30;1.80;;;;;;;0.23;66.13;97149.05;109335;1254;58842;-26
2023/12/24 07:42:45;;;;;;;4.30;1.70;;;;;;;0.06;66.09;97138.95;109278;1254;73136;-26
2023/12/24 07:45:13;;;;;;;3.20;1.40;;;;;;;-0.02;66.36;97140.41;109285;1255;73341;-26
2023/12/24 07:47:41;;;;;;;3.10;1.30;;;;;;;-0.05;66.54;97150.52;109315;1254;72634;-26
2023/12/24 07:50:08;;;;;;;4.20;2.10;;;;;;;-0.14;67.46;97155.48;109226;1257;58865;-26
2023/12/24 07:52:36;;;;;;;4.50;1.60;;;;;;;-0.15;67.20;97159.69;109323;1254;60116;-27
2023/12/24 07:55:04;;;;;;;4.10;2.20;;;;;;;-0.23;67.21;97156.80;109278;1257;71650;-26
2023/12/24 07:57:31;;;;;;;2.80;1.70;;;;;;;-0.26;67.21;97172.46;109254;1254;73358;-26
2023/12/24 07:59:59;;;;;;;3.90;2.10;;;;;;;-0.29;68.16;97168.96;109295;1254;72658;-26
2023/12/24 08:02:26;;;;;;;3.20;1.70;;;;;;;0.20;66.48;97159.70;109247;1257;59261;-26
2023/12/24 08:04:55;;;;;;;4.00;1.70;;;;;;;0.59;64.88;97167.21;109295;1254;60008;-26
2023/12/24 08:07:23;;;;;;;2.40;1.50;;;;;;;0.52;64.48;97165.14;109277;1254;71769;-26
2023/12/24 08:09:51;;;;;;;3.00;1.50;;;;;;;0.48;65.17;97173.27;109250;1254;74282;-26
2023/12/24 08:12:18;;;;;;;3.10;1.40;;;;;;;0.33;65.57;97178.20;109272;1257;72661;-26
2023/12/24 08:14:46;;;;;;;5.00;1.70;;;;;;;0.19;66.06;97181.06;109335;1254;58862;-26
2023/12/24 08:17:13;;;;;;;4.70;1.80;;;;;;;0.06;67.05;97185.52;109427;1254;60009;-26
2023/12/24 08:19:41;;;;;;;4.40;1.80;;;;;;;0.06;66.71;97188.97;109414;1254;71962;-26
2023/12/24 08:22:08;;;;;;;2.10;1.50;;;;;;;-0.14;67.37;97190.13;109286;1254;74367;-26
2023/12/24 08:24:36;;;;;;;7.60;2.90;;;;;;;-0.16;67.67;97192.87;109308;1254;71459;-26
2023/12/24 08:27:04;;;;;;;3.40;1.70;;;;;;;-0.25;68.70;97197.22;109261;1254;58884;-26
2023/12/24 08:29:31;;;;;;;2.60;1.40;;;;;;;-0.18;68.20;97191.92;109159;1254;58775;-26
2023/12/24 08:31:59;;;;;;;6.00;1.70;;;;;;;-0.12;68.71;97209.65;109296;1254;71829;-26
2023/12/24 08:34:27;;;;;;;3.60;1.80;;;;;;;0.29;67.13;97189.93;109407;1258;74333;-26
2023/12/24 08:36:54;;;;;;;1.80;1.40;;;;;;;0.46;65.63;97199.92;109265;1254;72702;-26
2023/12/24 08:39:22;;;;;;;3.10;1.60;;;;;;;0.40;66.65;97197.58;109160;1256;58945;-26
2023/12/24 08:41:49;;;;;;;5.00;2.00;;;;;;;0.21;67.08;97187.91;109353;1257;58796;-26
2023/12/24 08:44:17;;;;;;;3.20;1.50;;;;;;;0.14;67.28;97212.30;109260;1255;71739;-26
2023/12/24 08:46:48;;;;;;;4.50;1.80;;;;;;;0.07;67.54;97198.06;109260;1257;72969;-26
2023/12/24 08:49:16;;;;;;;2.10;1.00;;;;;;;-0.11;68.27;97212.11;109308;1255;72658;-26
2023/12/24 08:51:43;;;;;;;3.20;2.00;;;;;;;-0.17;69.21;97202.61;109247;1257;58853;-26
2023/12/24 08:54:11;;;;;;;3.90;1.90;;;;;;;-0.19;70.51;97224.06;109250;1258;58851;-26
2023/12/24 08:56:38;;;;;;;3.30;1.60;;;;;;;0.06;70.14;97225.78;109341;1257;73142;-26
2023/12/24 08:59:07;;;;;;;3.30;2.00;;;;;;;0.41;68.69;97209.42;109190;1257;73655;-26
2023/12/24 09:01:34;;;;;;;3.70;1.80;;;;;;;0.75;67.57;97228.94;109222;1256;71466;-26
2023/12/24 09:04:02;;;;;;;5.70;1.90;;;;;;;0.67;66.98;97227.79;109116;1257;58792;-26
2023/12/24 09:06:29;;;;;;;5.30;1.90;;;;;;;0.45;68.01;97233.61;109363;1255;60065;-26
2023/12/24 09:08:57;;;;;;;2.40;1.70;;;;;;;0.19;67.97;97230.39;109237;1257;73872;-26
2023/12/24 09:11:24;;;;;;;2.60;1.60;;;;;;;0.19;68.07;97244.41;109244;1256;74701;-26
2023/12/24 09:13:52;;;;;;;3.60;1.70;;;;;;;0.03;68.68;97244.10;109249;1256;71792;-26
2023/12/24 09:16:20;;;;;;;4.00;1.60;;;;;;;-0.13;69.02;97235.59;109239;1257;58868;-26
2023/12/24 09:18:47;;;;;;;2.60;1.70;;;;;;;-0.33;69.00;97221.74;109321;1254;60002;-26
2023/12/24 09:21:15;;;;;;;4.10;1.90;;;;;;;-0.29;69.15;97228.97;109319;1256;73821;-26
2023/12/24 09:23:42;;;;;;;4.60;1.80;;;;;;;-0.43;69.87;97234.32;109275;1255;74388;-26
2023/12/24 09:26:09;;;;;;;5.20;1.40;;;;;;;-0.29;69.77;97245.21;109235;1260;71363;-26
2023/12/24 09:28:37;;;;;;;2.50;1.20;;;;;;;0.11;67.59;97238.99;109201;1256;59249;-26
2023/12/24 09:31:04;;;;;;;4.60;1.60;;;;;;;0.35;66.70;97238.38;109276;1257;59973;-26
2023/12/24 09:33:32;;;;;;;3.10;1.80;;;;;;;0.43;66.32;97253.04;109281;1256;74309;-26
2023/12/24 09:36:00;;;;;;;3.50;2.20;;;;;;;0.45;65.72;97262.23;109133;1257;73715;-26
2023/12/24 09:38:27;;;;;;;2.80;1.70;;;;;;;0.38;66.54;97269.08;109248;1257;72625;-26
2023/12/24 09:40:55;;;;;;;4.30;1.90;;;;;;;-0.03;67.28;97261.20;109226;1257;59243;-26
2023/12/24 09:43:24;;;;;;;2.20;1.40;;;;;;;0.06;67.51;97259.27;109326;1256;60026;-26
2023/12/24 09:45:52;;;;;;;3.40;1.70;;;;;;;0.04;67.86;97261.97;109113;1257;72890;-26
2023/12/24 09:48:23;;;;;;;6.20;1.80;;;;;;;0.04;67.71;97259.39;109147;1257;74433;-26
2023/12/24 09:50:51;;;;;;;2.90;1.50;;;;;;;-0.01;67.99;97262.13;109101;1257;74730;-26
2023/12/24 09:53:19;;;;;;;4.00;2.30;;;;;;;-0.10;68.27;97267.34;109189;1256;59342;-26
2023/12/24 09:55:46;;;;;;;2.50;1.70;;;;;;;-0.02;69.07;97284.40;109253;1256;60019;-26
2023/12/24 09:58:14;;;;;;;3.60;2.30;;;;;;;0.01;68.45;97279.04;109173;1256;72595;-27
2023/12/24 10:00:41;;;;;;;2.60;1.50;;;;;;;-0.15;68.50;97264.57;109209;1256;74822;-26
2023/12/24 10:03:09;;;;;;;3.10;1.60;;;;;;;0.39;66.80;97282.98;109164;1257;72775;-26
2023/12/24 10:06:13;;;;;;;2.90;2.10;;;;;;;0.61;66.06;97276.55;109109;1256;59302;-26
2023/12/24 10:08:41;;;;;;;6.20;2.70;;;;;;;0.51;66.63;97292.44;108785;1263;60030;-27
2023/12/24 10:11:16;;;;;;;4.80;2.50;;;;;;;0.39;67.05;97288.61;108745;1262;73880;-26
2023/12/24 10:13:44;;;;;;;4.00;2.00;;;;;;;0.15;67.48;97281.73;108718;1262;74343;-26
2023/12/24 10:16:12;;;;;;;2.10;1.50;;;;;;;0.18;67.30;97288.31;108799;1263;72686;-26
2023/12/24 10:18:49;;;;;;;3.50;2.00;;;;;;;0.23;67.56;97297.70;108773;1263;60404;-26
2023/12/24 10:21:18;;;;;;;3.90;1.70;;;;;;;0.33;67.99;97303.73;108732;1262;58840;-26
2023/12/24 10:23:46;;;;;;;3.80;2.50;;;;;;;0.29;68.19;97299.34;108738;1264;72658;-26
2023/12/24 10:26:13;;;;;;;2.60;1.60;;;;;;;0.42;68.31;97310.93;108819;1263;73050;-26
2023/12/24 10:28:49;;;;;;;2.30;1.70;;;;;;;0.55;67.03;97284.79;108754;1263;72813;-26
2023/12/24 10:31:27;;;;;;;4.30;1.80;;;;;;;0.66;66.89;97288.67;108749;1264;58952;-26
2023/12/24 10:34:01;;;;;;;4.00;2.40;;;;;;;0.68;66.14;97288.52;108771;1263;58987;-26
2023/12/24 10:36:29;;;;;;;3.70;1.60;;;;;;;0.73;66.47;97294.34;108781;1262;73817;-26
2023/12/24 10:38:57;;;;;;;4.20;1.70;;;;;;;0.59;66.80;97297.86;108701;1264;73339;-26
2023/12/24 10:41:25;;;;;;;2.00;1.70;;;;;;;0.69;66.61;97291.71;108693;1264;72636;-26
2023/12/24 10:43:53;;;;;;;2.30;1.50;;;;;;;0.58;66.52;97288.73;109041;1257;59289;-26
2023/12/24 10:46:20;;;;;;;3.40;1.70;;;;;;;0.54;66.52;97293.61;109140;1257;58765;-26
2023/12/24 10:48:48;;;;;;;8.20;2.60;;;;;;;0.75;65.93;97297.30;109077;1257;73895;-26
2023/12/24 10:51:15;;;;;;;3.30;1.80;;;;;;;0.82;64.78;97285.73;109105;1257;74340;-26
2023/12/24 10:53:43;;;;;;;2.80;1.60;;;;;;;0.61;64.93;97298.91;109000;1257;71433;-26
2023/12/24 10:56:15;;;;;;;2.50;1.80;;;;;;;0.65;65.15;97306.00;109091;1257;58790;-26
2023/12/24 10:59:10;;;;;;;2.40;1.50;;;;;;;0.61;64.93;97294.98;108951;1257;60109;-27
2023/12/24 11:01:38;;;;;;;2.50;1.80;;;;;;;0.40;64.99;97295.91;109108;1257;72588;-26
2023/12/24 11:04:06;;;;;;;2.60;1.70;;;;;;;0.44;65.43;97306.24;109157;1256;74299;-26
2023/12/24 11:06:37;;;;;;;3.30;2.20;;;;;;;0.36;64.86;97289.03;109099;1256;71395;-26
2023/12/24 11:09:15;;;;;;;2.20;1.80;;;;;;;0.35;65.90;97308.38;109115;1260;58880;-27
2023/12/24 11:11:53;;;;;;;2.80;1.40;;;;;;;0.26;65.82;97310.98;109019;1257;60059;-26
2023/12/24 11:14:40;;;;;;;3.60;2.30;;;;;;;0.42;66.27;97325.81;109008;1256;72231;-26
2023/12/24 11:17:08;;;;;;;3.70;2.10;;;;;;;0.35;66.95;97322.20;109019;1256;74317;-26
2023/12/24 11:19:41;;;;;;;6.60;2.50;;;;;;;0.54;66.42;97327.25;109049;1257;72691;-27
2023/12/24 11:22:10;;;;;;;3.00;1.80;;;;;;;0.39;66.08;97312.85;109087;1257;58848;-26
2023/12/24 11:24:44;;;;;;;4.30;2.40;;;;;;;0.44;65.64;97312.05;109121;1256;58756;-26
2023/12/24 11:27:21;;;;;;;5.00;2.60;;;;;;;0.30;66.09;97318.12;109111;1257;73808;-26
2023/12/24 11:29:48;;;;;;;5.10;1.80;;;;;;;0.42;66.42;97332.48;109141;1256;73296;-26
2023/12/24 11:32:27;;;;;;;2.80;1.90;;;;;;;0.50;66.66;97331.92;109050;1258;72679;-26
2023/12/24 11:34:57;;;;;;;3.70;2.10;;;;;;;0.43;65.83;97335.48;109077;1257;58933;-26
2023/12/24 11:37:34;;;;;;;5.80;2.50;;;;;;;0.53;66.54;97344.05;109016;1256;58769;-26
2023/12/24 11:40:12;;;;;;;2.40;1.70;;;;;;;0.63;65.89;97340.77;108973;1259;73827;-26
2023/12/24 11:42:47;;;;;;;3.90;1.80;;;;;;;0.56;65.62;97341.83;109013;1259;74385;-26
2023/12/24 11:45:29;;;;;;;3.40;1.80;;;;;;;0.43;65.96;97348.48;108960;1258;72923;-26
2023/12/24 11:48:01;;;;;;;3.00;2.10;;;;;;;0.46;66.48;97355.79;108923;1260;58839;-26
2023/12/24 11:50:33;;;;;;;2.60;2.20;;;;;;;0.54;66.84;97367.40;109031;1259;60053;-26
2023/12/24 11:53:03;;;;;;;2.30;1.60;;;;;;;0.50;66.40;97359.92;108959;1259;72785;-26
2023/12/24 11:55:32;;;;;;;2.70;1.20;;;;;;;0.72;66.26;97370.61;108942;1258;73230;-26
2023/12/24 11:58:02;;;;;;;1.70;1.40;;;;;;;1.24;63.87;97362.64;108921;1260;71400;-26
2023/12/24 12:00:32;;;;;;;2.40;1.50;;;;;;;1.62;62.67;97363.51;108958;1259;60662;-26
2023/12/24 12:03:04;;;;;;;3.60;1.90;;;;;;;1.50;62.34;97367.63;108991;1258;58765;-26
2023/12/24 12:05:35;;;;;;;2.50;1.30;;;;;;;1.35;62.29;97370.05;108979;1258;73928;-26
2023/12/24 12:08:05;;;;;;;2.10;1.30;;;;;;;1.39;62.59;97370.95;108995;1259;73130;-26
2023/12/24 12:10:38;;;;;;;5.00;1.90;;;;;;;1.24;62.34;97368.10;109027;1259;72656;-26
2023/12/24 12:13:09;;;;;;;2.40;1.60;;;;;;;1.16;62.73;97379.23;109016;1259;58803;-26
2023/12/24 12:15:39;;;;;;;2.10;1.60;;;;;;;1.07;62.78;97382.23;109075;1259;60103;-26
2023/12/24 12:18:14;;;;;;;3.00;2.00;;;;;;;0.92;62.25;97371.27;109013;1258;74083;-26
2023/12/24 12:20:47;;;;;;;2.40;1.90;;;;;;;0.69;62.43;97371.12;109041;1259;74296;-26
2023/12/24 12:23:19;;;;;;;2.20;1.50;;;;;;;0.64;62.71;97381.01;109055;1259;72793;-26
2023/12/24 12:25:49;;;;;;;2.50;1.80;;;;;;;0.69;63.10;97398.44;108929;1259;59265;-26
2023/12/24 12:28:20;;;;;;;3.20;1.30;;;;;;;0.66;63.65;97406.68;108965;1259;58820;-27
2023/12/24 12:30:50;;;;;;;2.40;1.70;;;;;;;0.70;63.38;97397.52;109027;1258;73857;-26
2023/12/24 12:33:20;;;;;;;5.80;2.60;;;;;;;0.64;63.00;97405.63;108990;1259;74480;-26
2023/12/24 12:35:50;;;;;;;4.70;1.70;;;;;;;0.60;63.49;97399.89;108986;1258;72634;-26
2023/12/24 12:38:22;;;;;;;2.30;1.70;;;;;;;0.52;63.12;97397.89;108928;1259;58863;-26
2023/12/24 12:48:26;;;;;;;4.30;2.20;;;;;;;0.37;64.23;97405.91;103013;1289;599994;-27
2023/12/24 12:50:54;;;;;;;1.90;1.50;;;;;;;0.27;64.63;97420.73;104990;1269;61116;-28
2023/12/24 12:53:25;;;;;;;2.20;1.90;;;;;;;0.31;64.69;97408.50;104937;1268;61543;-28
2023/12/24 12:56:02;;;;;;;4.40;2.10;;;;;;;0.42;64.79;97423.17;104697;1267;72199;-28
2023/12/24 12:58:29;;;;;;;2.60;1.80;;;;;;;0.55;64.48;97423.84;104890;1266;73153;-28
2023/12/24 13:08:42;;;;;;;2.10;1.50;;;;;;;1.00;63.08;97438.95;102699;1290;601341;-28
2023/12/24 13:11:10;;;;;;;1.60;1.30;;;;;;;1.01;62.71;97430.50;105205;1263;61076;-28
2023/12/24 13:13:38;;;;;;;2.70;1.60;;;;;;;0.85;62.68;97437.23;105184;1266;61203;-28
2023/12/24 13:16:07;;;;;;;2.10;1.10;;;;;;;0.71;63.03;97446.16;105242;1266;70917;-28
2023/12/24 13:18:37;;;;;;;1.80;1.60;;;;;;;0.57;63.56;97447.42;105069;1264;74395;-28
2023/12/24 13:21:07;;;;;;;2.70;1.60;;;;;;;0.64;63.85;97454.50;105246;1264;71418;-28
2023/12/24 13:23:35;;;;;;;2.10;1.70;;;;;;;0.56;63.71;97446.82;105193;1261;61239;-28
2023/12/24 13:26:04;;;;;;;4.30;2.40;;;;;;;0.30;64.33;97443.38;105285;1263;61179;-28
2023/12/24 13:28:33;;;;;;;3.10;2.10;;;;;;;0.29;64.39;97451.34;105314;1261;70948;-27
2023/12/24 13:38:40;;;;;;;2.60;1.60;;;;;;;0.04;66.13;97458.51;102659;1294;600276;-27
2023/12/24 13:48:47;;;;;;;2.20;1.20;;;;;;;0.32;64.84;97480.79;102631;1298;598693;-27
2023/12/24 13:51:16;;;;;;;1.40;1.00;;;;;;;0.17;65.37;97483.31;104806;1268;61197;-28
2023/12/24 13:53:44;;;;;;;1.70;1.20;;;;;;;0.05;66.05;97486.98;104747;1267;61007;-28
2023/12/24 14:03:48;;;;;;;2.00;1.30;;;;;;;-0.51;68.53;97497.73;103039;1292;600072;-27
2023/12/24 14:06:16;;;;;;;1.10;0.80;;;;;;;-0.11;67.49;97500.77;105118;1270;61507;-28
2023/12/24 14:08:44;;;;;;;3.80;1.90;;;;;;;0.38;65.75;97507.42;104834;1265;61119;-28